Airfield :
LOGIN :

Register | Disclaimer

   EN    FR    IT 

 










Legend :    VFR   Marginal VFR   IFR   Intensive IFR   Very Intensive IFR
Visi :
Ceiling :
>= 8 km
>= 3000ft
5 to 8 km
1000 to 3000 ft
1500m to 5 km
500 to 1000 ft
800 to 1500m
200 to 500 ft
< 800m
< 200 ft
Symbols :   Thunderstorms  Fog  Heavy snow  Heavy precipitations  Wind > 20 kt
SIGMETs :     Misc.  Thunderstorms  Icing  Turbulence  Mountain Waves  Volcanic Ashes






- Airport Elevation : 23 ft
- IATA code : XFW


EDHI - Hamburg Finkenwerder

CURRENT METAR :
  • 200320Z AUTO 20009KT 180V240 5000 // BKN016/// OVC036/// 03/02 Q1015

EXPIRED METARs :
  • 200250Z AUTO 21008KT 9999 // FEW024/// BKN036/// OVC049/// 03/00 Q1016
  • 200220Z AUTO 21006KT 190V250 9999 // BKN051/// BKN073/// 03/00 Q1016
  • 200150Z AUTO 20007KT 9999 // BKN078/// 02/M00 Q1016
  • 200120Z AUTO 20006KT 9999 // FEW081/// 02/M00 Q1016
  • 200050Z AUTO 22003KT 180V250 9999 // FEW025/// 01/M00 Q1017
  • 200020Z AUTO 21005KT 9999 // FEW026/// 02/00 Q1017

Expired Forecast.



MET'MAP, your aeronautical weather chart ! - Copyright ORBIFLY December 2007 - Disclaimer

ORBIFLY MET'MAP TEAM :

Programming & Development : Alexandra Zaïnal
Concept & original design : Baudouin d'Aumeries
Assistance for programming : Marc-Olivier Méhu
Technical & hardware support : Manuel Goepfert

Contact : metmap@orbifly.com




SOURCES & CREDITS :

   NOAA